Time;durP1;ratioP1;P1;durP2;ratioP2;P2;SDS_P1;SDS_P2;PMS_P1;PMS_P2;Temp;Humidity;BMP_temperature;BMP_pressure;BME280_temperature;BME280_humidity;BME280_pressure;Samples;Min_cycle;Max_cycle;Signal;HPM_P1;HPM_P2
2022/07/31 00:01:35;;;;;;;4.25;2.92;;;21.40;91.30;;;;;;5050955;28;20048;-70
2022/07/31 00:04:02;;;;;;;4.28;2.53;;;21.50;91.20;;;;;;5050741;28;20033;-70
2022/07/31 00:06:28;;;;;;;3.50;2.22;;;21.50;91.20;;;;;;5050733;28;20048;-70
2022/07/31 00:08:53;;;;;;;5.30;2.30;;;21.50;91.10;;;;;;5050660;28;20481;-71
2022/07/31 00:11:19;;;;;;;5.85;2.80;;;21.50;91.10;;;;;;5050870;28;20025;-70
2022/07/31 00:13:45;;;;;;;4.60;2.30;;;21.40;91.10;;;;;;5050907;28;20500;-70
2022/07/31 00:16:11;;;;;;;3.28;2.08;;;21.40;91.20;;;;;;5050560;28;20025;-70
2022/07/31 00:18:37;;;;;;;3.95;2.15;;;21.40;91.10;;;;;;5050434;28;20036;-70
2022/07/31 00:21:03;;;;;;;4.63;2.58;;;21.40;91.10;;;;;;5050783;28;20029;-71
2022/07/31 00:23:29;;;;;;;4.07;2.22;;;21.40;91.10;;;;;;5050772;28;20025;-70
2022/07/31 00:25:55;;;;;;;5.90;2.50;;;21.30;91.10;;;;;;5050641;28;20120;-70
2022/07/31 00:28:21;;;;;;;5.97;2.22;;;21.30;91.10;;;;;;5065541;22;20091;-71
2022/07/31 00:30:47;;;;;;;3.80;2.08;;;21.30;91.10;;;;;;5032880;28;20111;-71
2022/07/31 00:33:13;;;;;;;3.15;1.80;;;21.30;91.20;;;;;;5050816;28;20025;-71
2022/07/31 00:35:39;;;;;;;4.30;1.90;;;21.20;91.20;;;;;;5050345;28;20033;-71
2022/07/31 00:38:05;;;;;;;4.03;2.00;;;21.20;91.20;;;;;;5032797;28;20040;-71
2022/07/31 00:40:32;;;;;;;3.95;1.90;;;21.20;91.20;;;;;;5050525;28;20037;-71
2022/07/31 00:42:58;;;;;;;3.40;2.47;;;21.10;91.20;;;;;;5050680;28;20025;-71
2022/07/31 00:45:24;;;;;;;6.63;3.05;;;21.10;91.20;;;;;;5036192;28;20033;-70
2022/07/31 00:47:50;;;;;;;5.13;3.33;;;21.10;91.20;;;;;;5036519;28;20381;-71
2022/07/31 00:50:16;;;;;;;5.95;3.53;;;21.10;91.30;;;;;;5036338;28;20040;-71
2022/07/31 00:52:43;;;;;;;5.38;3.53;;;21.10;91.40;;;;;;5054464;28;20366;-71
2022/07/31 00:55:09;;;;;;;6.72;3.20;;;21.00;91.40;;;;;;5036599;28;20504;-71
2022/07/31 00:57:35;;;;;;;6.60;3.53;;;21.00;91.50;;;;;;5054216;28;20056;-71
2022/07/31 01:00:01;;;;;;;5.47;3.08;;;21.00;91.60;;;;;;5054211;28;20219;-71
2022/07/31 01:02:28;;;;;;;4.07;2.72;;;21.00;91.80;;;;;;5019906;28;20033;-71
2022/07/31 01:04:54;;;;;;;4.97;2.80;;;20.90;91.90;;;;;;5053977;28;20037;-70
2022/07/31 01:07:20;;;;;;;5.68;2.90;;;20.90;92.10;;;;;;5036156;28;20025;-70
2022/07/31 01:09:47;;;;;;;4.28;2.70;;;20.90;92.20;;;;;;5035982;28;20040;-71
2022/07/31 01:12:24;;;;;;;5.50;3.15;;;20.90;92.20;;;;;;5054115;28;20066;-70
2022/07/31 01:14:58;;;;;;;5.28;2.67;;;20.90;92.30;;;;;;5019703;28;20082;-71
2022/07/31 01:17:26;;;;;;;4.80;2.42;;;20.80;92.40;;;;;;5053713;28;20090;-70
2022/07/31 01:19:53;;;;;;;5.55;3.10;;;20.80;92.50;;;;;;5035739;28;20040;-70
2022/07/31 01:22:29;;;;;;;6.95;2.90;;;20.70;92.50;;;;;;5036076;28;20029;-70
2022/07/31 01:25:01;;;;;;;6.40;2.60;;;20.70;92.70;;;;;;5035929;28;20083;-70
2022/07/31 01:28:02;;;;;;;5.07;3.15;;;20.70;92.90;;;;;;5052843;28;20041;-71
2022/07/31 01:30:34;;;;;;;6.03;3.10;;;20.60;93.20;;;;;;5035659;28;20118;-71
2022/07/31 01:33:13;;;;;;;5.68;2.75;;;20.60;93.30;;;;;;5035766;28;20074;-71
2022/07/31 01:35:44;;;;;;;4.63;2.38;;;20.60;93.50;;;;;;5019156;28;20414;-70
2022/07/31 01:38:18;;;;;;;4.38;2.58;;;20.50;93.60;;;;;;5035567;28;20028;-71
2022/07/31 01:40:47;;;;;;;5.43;2.70;;;20.50;93.70;;;;;;5053127;28;20082;-70
2022/07/31 01:43:22;;;;;;;3.97;2.50;;;20.50;93.90;;;;;;5053511;28;20096;-71
2022/07/31 01:45:56;;;;;;;3.85;2.40;;;20.50;94.00;;;;;;5035166;28;20174;-70
2022/07/31 01:48:26;;;;;;;4.55;2.50;;;20.50;94.10;;;;;;5019212;28;20049;-71
2022/07/31 01:50:54;;;;;;;4.75;2.50;;;20.50;94.20;;;;;;5035294;28;20039;-69
2022/07/31 01:53:23;;;;;;;4.65;2.65;;;20.40;94.20;;;;;;5053276;28;20089;-70
2022/07/31 01:55:54;;;;;;;5.10;3.47;;;20.40;94.30;;;;;;5034068;28;20037;-70
2022/07/31 01:58:22;;;;;;;6.85;3.95;;;20.40;94.50;;;;;;5053080;28;20505;-70
2022/07/31 02:00:51;;;;;;;5.43;3.35;;;20.30;94.60;;;;;;5034936;28;20394;-71
2022/07/31 02:03:17;;;;;;;4.13;3.10;;;20.30;94.70;;;;;;5035154;28;20033;-70
2022/07/31 02:05:44;;;;;;;4.90;3.00;;;20.30;94.80;;;;;;5052883;28;20025;-70
2022/07/31 02:08:13;;;;;;;4.55;3.30;;;20.20;94.90;;;;;;5035092;28;20421;-70
2022/07/31 02:10:44;;;;;;;6.10;3.72;;;20.20;95.00;;;;;;5034735;28;20029;-70
2022/07/31 02:13:13;;;;;;;6.20;4.22;;;20.20;95.10;;;;;;5035044;28;20021;-70
2022/07/31 02:15:43;;;;;;;4.97;3.38;;;20.20;95.10;;;;;;5035175;28;20033;-70
2022/07/31 02:18:11;;;;;;;5.47;3.30;;;20.20;95.10;;;;;;5018770;28;20063;-70
2022/07/31 02:20:54;;;;;;;5.43;3.42;;;20.20;95.00;;;;;;5034873;28;20513;-71
2022/07/31 02:23:19;;;;;;;;;;;20.20;94.90;;;;;;5035560;28;20162;-70
2022/07/31 02:25:46;;;;;;;4.57;3.10;;;20.20;94.80;;;;;;5034446;28;20019;-70
2022/07/31 02:28:21;;;;;;;6.13;3.25;;;20.20;94.70;;;;;;5034547;28;20499;-70
2022/07/31 02:30:48;;;;;;;5.38;3.08;;;20.20;94.60;;;;;;5034592;28;20025;-69
2022/07/31 02:33:25;;;;;;;6.93;3.17;;;20.20;94.60;;;;;;5034659;28;20029;-69
2022/07/31 02:35:54;;;;;;;6.70;3.10;;;20.20;94.60;;;;;;5034666;28;20032;-69
2022/07/31 02:38:25;;;;;;;4.97;3.20;;;20.20;94.60;;;;;;5034349;28;20029;-70
2022/07/31 02:40:56;;;;;;;5.38;3.00;;;20.20;94.50;;;;;;5034354;28;20120;-69
2022/07/31 02:43:25;;;;;;;6.75;2.85;;;20.20;94.40;;;;;;5052393;28;20039;-70
2022/07/31 02:45:53;;;;;;;5.57;3.00;;;20.20;94.40;;;;;;5034281;28;20052;-69
2022/07/31 02:48:20;;;;;;;5.63;2.80;;;20.30;94.30;;;;;;5034349;28;20081;-70
2022/07/31 02:50:51;;;;;;;5.00;2.85;;;20.30;94.20;;;;;;5033969;28;20087;-69
2022/07/31 02:53:17;;;;;;;3.63;2.13;;;20.30;94.10;;;;;;5034207;28;20125;-70
2022/07/31 02:55:45;;;;;;;6.57;3.08;;;20.40;93.80;;;;;;5034020;28;20032;-69
2022/07/31 02:58:11;;;;;;;3.83;2.70;;;20.30;93.70;;;;;;5052066;28;20024;-71
2022/07/31 03:00:37;;;;;;;4.78;2.60;;;20.40;93.70;;;;;;5033573;28;20030;-70
2022/07/31 03:03:03;;;;;;;5.90;2.95;;;20.50;93.40;;;;;;5034042;28;20497;-70
2022/07/31 03:05:30;;;;;;;6.10;2.70;;;20.50;93.30;;;;;;5034134;28;20086;-70
2022/07/31 03:07:56;;;;;;;4.93;2.83;;;20.50;93.30;;;;;;5033813;28;20036;-70
2022/07/31 03:10:22;;;;;;;6.03;2.75;;;20.50;93.30;;;;;;5033939;28;20397;-70
2022/07/31 03:13:02;;;;;;;5.30;2.70;;;20.50;93.30;;;;;;5033925;28;20021;-69
2022/07/31 03:15:30;;;;;;;4.25;2.65;;;20.60;93.40;;;;;;5017541;28;20040;-70
2022/07/31 03:17:57;;;;;;;4.05;2.70;;;20.50;93.40;;;;;;5033936;28;20025;-69
2022/07/31 03:20:33;;;;;;;4.78;2.10;;;20.50;93.50;;;;;;5033644;28;20506;-70
2022/07/31 03:23:00;;;;;;;4.53;2.58;;;20.50;93.50;;;;;;5033596;28;20382;-71
2022/07/31 03:25:27;;;;;;;4.10;2.38;;;20.50;93.60;;;;;;5033624;28;20064;-70
2022/07/31 03:27:53;;;;;;;4.72;2.63;;;20.60;93.60;;;;;;5033497;28;20421;-71
2022/07/31 03:30:23;;;;;;;8.77;2.60;;;20.60;93.70;;;;;;5033275;28;20108;-71
2022/07/31 03:32:53;;;;;;;4.57;2.78;;;20.60;93.70;;;;;;5033591;28;20033;-71
2022/07/31 03:35:19;;;;;;;5.03;2.83;;;20.60;93.70;;;;;;5033567;28;20057;-69
2022/07/31 03:37:45;;;;;;;4.85;2.80;;;20.60;93.80;;;;;;5033406;28;20025;-70
2022/07/31 03:40:11;;;;;;;5.20;2.80;;;20.50;93.80;;;;;;5033285;28;20037;-68
2022/07/31 03:42:38;;;;;;;4.97;3.10;;;20.50;93.80;;;;;;5033399;28;20394;-71
2022/07/31 03:45:06;;;;;;;7.53;2.83;;;20.50;93.90;;;;;;5033226;28;20074;-71
2022/07/31 03:47:32;;;;;;;4.20;2.70;;;20.50;93.90;;;;;;5033254;28;20083;-70
2022/07/31 03:50:00;;;;;;;5.50;3.17;;;20.50;93.90;;;;;;5033043;28;20401;-69
2022/07/31 03:52:28;;;;;;;4.80;2.60;;;20.50;94.00;;;;;;5033369;28;20025;-70
2022/07/31 03:54:54;;;;;;;4.40;2.42;;;20.50;94.00;;;;;;5033279;28;20043;-69
2022/07/31 03:57:21;;;;;;;5.32;2.90;;;20.40;94.10;;;;;;5033410;28;20487;-69
2022/07/31 03:59:49;;;;;;;6.63;3.05;;;20.40;94.40;;;;;;5032807;28;20033;-70
2022/07/31 04:02:16;;;;;;;6.45;2.72;;;20.50;94.20;;;;;;5033231;28;20315;-70
2022/07/31 04:04:47;;;;;;;5.05;2.72;;;20.40;94.20;;;;;;5033043;28;20036;-69
2022/07/31 04:07:13;;;;;;;4.95;3.00;;;20.40;94.20;;;;;;5033052;28;20417;-70
2022/07/31 04:09:41;;;;;;;4.65;2.60;;;20.50;94.20;;;;;;5032907;28;20037;-70
2022/07/31 04:12:09;;;;;;;6.45;3.05;;;20.40;94.20;;;;;;5033080;28;20029;-70
2022/07/31 04:14:35;;;;;;;6.38;2.88;;;20.50;94.30;;;;;;5033064;28;20095;-69
2022/07/31 04:17:01;;;;;;;5.55;3.00;;;20.50;94.60;;;;;;5032976;28;20086;-69
2022/07/31 04:19:30;;;;;;;6.05;3.03;;;20.50;94.20;;;;;;5034926;28;20029;-70
2022/07/31 04:21:57;;;;;;;;;;;20.50;94.10;;;;;;5037312;28;20066;-69
2022/07/31 04:24:23;;;;;;;4.65;2.67;;;20.50;94.00;;;;;;5036645;28;20291;-69
2022/07/31 04:27:09;;;;;;;4.35;2.60;;;20.50;93.80;;;;;;5013584;28;20025;-69
2022/07/31 04:29:40;;;;;;;6.22;2.25;;;20.60;93.70;;;;;;5020721;28;20517;-69
2022/07/31 04:32:06;;;;;;;4.03;2.67;;;20.60;93.70;;;;;;5036986;28;20397;-70
2022/07/31 04:34:42;;;;;;;5.53;2.83;;;20.60;93.60;;;;;;5036937;28;20119;-70
2022/07/31 04:37:09;;;;;;;5.50;2.60;;;20.60;93.50;;;;;;5036698;28;20028;-70
2022/07/31 04:39:35;;;;;;;5.57;3.05;;;20.60;93.50;;;;;;5036697;28;20087;-69
2022/07/31 04:42:01;;;;;;;6.70;2.67;;;20.60;93.40;;;;;;5036790;28;20028;-69
2022/07/31 04:44:29;;;;;;;5.80;3.08;;;20.60;93.30;;;;;;5036675;28;20079;-70
2022/07/31 04:47:00;;;;;;;8.43;2.90;;;20.70;93.30;;;;;;5036532;28;20029;-70
2022/07/31 04:49:27;;;;;;;8.10;3.75;;;20.70;93.40;;;;;;5036427;28;20272;-70
2022/07/31 04:51:53;;;;;;;6.10;3.08;;;20.70;93.40;;;;;;5036378;28;20031;-69
2022/07/31 04:54:20;;;;;;;6.63;3.78;;;20.70;93.40;;;;;;5036399;28;20032;-69
2022/07/31 04:56:47;;;;;;;6.50;3.03;;;20.70;93.40;;;;;;5036348;28;20405;-69
2022/07/31 04:59:15;;;;;;;9.73;3.85;;;20.70;93.40;;;;;;5036043;28;20036;-69
2022/07/31 05:01:45;;;;;;;7.53;3.88;;;20.70;93.40;;;;;;5036454;28;20052;-70
2022/07/31 05:04:14;;;;;;;7.90;3.63;;;20.70;93.40;;;;;;5036164;28;20112;-69
2022/07/31 05:06:48;;;;;;;6.57;3.47;;;20.70;93.50;;;;;;5036669;28;20029;-69
2022/07/31 05:09:17;;;;;;;7.45;3.92;;;20.70;93.50;;;;;;5036570;28;20441;-71
2022/07/31 05:11:44;;;;;;;9.38;3.28;;;20.70;93.60;;;;;;5036579;28;20028;-70
2022/07/31 05:14:12;;;;;;;8.02;3.65;;;20.70;93.60;;;;;;5036530;28;20043;-71
2022/07/31 05:16:38;;;;;;;8.70;3.85;;;20.80;93.70;;;;;;5054101;28;20051;-70
2022/07/31 05:19:05;;;;;;;7.80;3.85;;;20.80;93.80;;;;;;5035861;28;20501;-70
2022/07/31 05:22:10;;;;;;;8.05;4.20;;;20.80;93.80;;;;;;5011822;28;20030;-70
2022/07/31 05:24:56;;;;;;;7.45;4.38;;;20.80;93.80;;;;;;5008036;28;20510;-70
2022/07/31 05:27:23;;;;;;;6.97;4.00;;;20.80;93.90;;;;;;5027498;28;20402;-70
2022/07/31 05:29:48;;;;;;;7.50;3.97;;;20.80;93.80;;;;;;5053343;28;20028;-71
2022/07/31 05:32:15;;;;;;;9.15;4.22;;;20.80;93.90;;;;;;5036018;28;20401;-70
2022/07/31 05:34:41;;;;;;;8.93;5.18;;;20.90;94.00;;;;;;5035715;28;20143;-71
2022/07/31 05:37:08;;;;;;;6.65;4.03;;;20.90;93.90;;;;;;5035589;28;20489;-70
2022/07/31 05:39:36;;;;;;;8.73;4.18;;;20.90;93.90;;;;;;5035369;28;20043;-70
2022/07/31 05:42:20;;;;;;;8.52;4.07;;;20.90;93.90;;;;;;5053578;28;20047;-71
2022/07/31 05:44:58;;;;;;;8.57;4.65;;;20.90;93.90;;;;;;5053302;28;20138;-71
2022/07/31 05:47:25;;;;;;;8.57;4.70;;;20.90;93.90;;;;;;5035442;28;20021;-70
2022/07/31 05:49:51;;;;;;;10.27;5.20;;;20.90;93.90;;;;;;5035151;28;20060;-70
2022/07/31 05:52:17;;;;;;;9.20;4.65;;;20.90;93.90;;;;;;5035398;28;20095;-71
2022/07/31 05:54:46;;;;;;;7.40;4.13;;;20.90;93.90;;;;;;5035438;28;20087;-71
2022/07/31 05:57:18;;;;;;;10.45;4.97;;;20.90;93.90;;;;;;5053292;28;20048;-71
2022/07/31 05:59:45;;;;;;;7.07;4.57;;;20.90;94.00;;;;;;5052999;28;20021;-70
2022/07/31 06:02:12;;;;;;;8.73;5.00;;;20.90;94.00;;;;;;5035150;28;20056;-70
2022/07/31 06:04:55;;;;;;;11.20;5.22;;;21.00;94.00;;;;;;5035169;28;20116;-70
2022/07/31 06:07:21;;;;;;;10.52;5.38;;;21.00;94.00;;;;;;5035036;28;20021;-71
2022/07/31 06:09:47;;;;;;;7.47;4.35;;;21.00;94.00;;;;;;5034881;28;20051;-70
2022/07/31 06:12:13;;;;;;;9.32;4.53;;;21.00;94.40;;;;;;5035263;28;20036;-70
2022/07/31 06:14:39;;;;;;;6.57;4.40;;;21.00;94.00;;;;;;5018444;28;20114;-71
2022/07/31 06:17:10;;;;;;;6.95;4.07;;;21.10;94.00;;;;;;5034786;28;20029;-71
2022/07/31 06:19:38;;;;;;;8.38;4.63;;;21.10;93.90;;;;;;5034886;28;20033;-70
2022/07/31 06:22:04;;;;;;;14.60;5.13;;;21.10;93.90;;;;;;5018378;28;20086;-70
2022/07/31 06:24:33;;;;;;;8.65;4.07;;;21.10;93.80;;;;;;5034788;28;20033;-71
2022/07/31 06:29:40;;;;;;;9.38;4.22;;;21.10;93.80;;;;;;5030603;28;19952;-70
2022/07/31 06:32:07;;;;;;;9.02;4.15;;;21.10;93.80;;;;;;5014633;28;20049;-71
2022/07/31 06:34:33;;;;;;;6.07;3.67;;;21.10;93.80;;;;;;5014683;28;20044;-70
2022/07/31 06:37:00;;;;;;;7.80;3.90;;;21.10;93.80;;;;;;5014643;28;20030;-70
2022/07/31 06:39:26;;;;;;;8.35;4.18;;;21.20;93.90;;;;;;4998091;28;20037;-70
2022/07/31 06:42:30;;;;;;;5.88;3.83;;;21.20;93.90;;;;;;5031589;28;20052;-70
2022/07/31 06:45:03;;;;;;;7.22;3.78;;;21.20;93.80;;;;;;5032155;28;20065;-70
2022/07/31 06:47:47;;;;;;;5.43;3.22;;;21.20;93.90;;;;;;5032058;28;20038;-71
2022/07/31 06:50:27;;;;;;;7.30;3.20;;;21.20;93.90;;;;;;5013996;28;20049;-70
2022/07/31 06:53:02;;;;;;;5.85;2.55;;;21.20;93.80;;;;;;5014344;28;20112;-71
2022/07/31 06:55:30;;;;;;;5.50;2.33;;;21.20;93.90;;;;;;5014397;28;20417;-72
2022/07/31 06:57:56;;;;;;;4.28;2.60;;;21.10;94.00;;;;;;4998163;28;20033;-70
2022/07/31 07:00:23;;;;;;;4.00;2.40;;;21.10;94.10;;;;;;5014111;28;20033;-70
2022/07/31 07:02:50;;;;;;;3.83;2.20;;;21.10;94.20;;;;;;5013980;28;20030;-70
2022/07/31 07:05:16;;;;;;;6.60;2.75;;;21.10;94.30;;;;;;5014025;28;20040;-70
2022/07/31 07:07:43;;;;;;;4.53;2.40;;;21.10;94.40;;;;;;5013990;28;20060;-70
2022/07/31 07:10:09;;;;;;;3.50;2.20;;;21.10;94.80;;;;;;5013665;28;20029;-71
2022/07/31 07:12:53;;;;;;;4.72;2.55;;;21.10;95.50;;;;;;5031692;28;20076;-71
2022/07/31 07:15:19;;;;;;;5.47;2.92;;;21.00;95.90;;;;;;5031596;28;20025;-73
2022/07/31 07:17:45;;;;;;;5.60;3.13;;;21.10;96.20;;;;;;5013854;28;20040;-72
2022/07/31 07:20:16;;;;;;;8.45;4.30;;;21.10;96.50;;;;;;4997981;28;20120;-70
2022/07/31 07:22:42;;;;;;;5.13;2.88;;;21.10;96.70;;;;;;5013942;28;20033;-71
2022/07/31 07:25:11;;;;;;;3.80;2.45;;;21.10;96.50;;;;;;5013517;28;20053;-71
2022/07/31 07:27:39;;;;;;;4.50;2.33;;;21.10;96.60;;;;;;5014032;28;20046;-70
2022/07/31 07:30:06;;;;;;;3.92;2.33;;;21.10;96.70;;;;;;5013428;28;20366;-70
2022/07/31 07:32:32;;;;;;;4.13;2.28;;;21.10;96.70;;;;;;5013696;28;20116;-70
2022/07/31 07:34:58;;;;;;;4.18;2.10;;;21.00;96.70;;;;;;5013711;28;20133;-70
2022/07/31 07:37:44;;;;;;;4.63;2.50;;;21.10;96.70;;;;;;5031101;28;20059;-70
2022/07/31 07:40:10;;;;;;;5.78;2.80;;;21.10;96.70;;;;;;5013351;28;20405;-70
2022/07/31 07:42:36;;;;;;;4.75;2.50;;;21.00;96.50;;;;;;5013509;28;20025;-70
2022/07/31 07:45:03;;;;;;;4.95;2.60;;;21.10;96.60;;;;;;5013535;28;20120;-70
2022/07/31 07:47:29;;;;;;;4.00;2.88;;;21.10;96.50;;;;;;5013330;28;20029;-71
2022/07/31 07:49:55;;;;;;;5.35;2.60;;;21.00;96.40;;;;;;5013321;28;20103;-72
2022/07/31 07:52:37;;;;;;;4.75;2.40;;;21.10;96.30;;;;;;5013182;28;20021;-71
2022/07/31 07:55:04;;;;;;;4.95;2.42;;;21.10;96.40;;;;;;5030497;28;20036;-70
2022/07/31 07:57:48;;;;;;;4.45;2.47;;;21.10;96.30;;;;;;5031287;28;20186;-70
2022/07/31 08:00:33;;;;;;;7.20;2.63;;;21.10;96.50;;;;;;5031206;28;20103;-70
2022/07/31 08:03:02;;;;;;;6.40;2.85;;;21.10;96.50;;;;;;5013270;28;20033;-70
2022/07/31 08:05:28;;;;;;;4.70;2.65;;;21.10;96.70;;;;;;5013107;28;20036;-72
2022/07/31 08:07:54;;;;;;;4.60;2.53;;;21.10;96.80;;;;;;5013161;28;20414;-72
2022/07/31 08:10:42;;;;;;;6.22;2.40;;;21.10;96.60;;;;;;5013232;28;20071;-70
2022/07/31 08:13:17;;;;;;;5.50;3.13;;;21.20;96.60;;;;;;5013258;28;20021;-71
2022/07/31 08:16:02;;;;;;;7.38;3.08;;;21.20;96.70;;;;;;5030828;28;20072;-70
2022/07/31 08:18:48;;;;;;;6.50;3.70;;;21.20;96.80;;;;;;5012987;28;20034;-70
2022/07/31 08:21:15;;;;;;;7.22;3.08;;;21.20;96.80;;;;;;5013146;28;20572;-70
2022/07/31 08:23:41;;;;;;;6.65;3.03;;;21.20;96.80;;;;;;5013174;28;20044;-71
2022/07/31 08:26:08;;;;;;;4.38;2.80;;;21.20;96.70;;;;;;5012872;28;20044;-71
2022/07/31 08:28:34;;;;;;;4.63;3.10;;;21.20;96.80;;;;;;5012724;28;20037;-70
2022/07/31 08:31:00;;;;;;;4.45;3.05;;;21.20;96.80;;;;;;5012939;28;20112;-70
2022/07/31 08:33:26;;;;;;;4.57;2.63;;;21.20;96.90;;;;;;5013119;28;20084;-72
2022/07/31 08:35:54;;;;;;;4.53;2.42;;;21.20;97.00;;;;;;5030628;28;20037;-72
2022/07/31 08:38:20;;;;;;;5.25;2.92;;;21.20;97.10;;;;;;5013033;28;20032;-72
2022/07/31 08:41:04;;;;;;;6.95;3.28;;;21.20;97.20;;;;;;5013064;28;20041;-71
2022/07/31 08:43:30;;;;;;;5.28;2.60;;;21.30;97.20;;;;;;5013172;28;20494;-72
2022/07/31 08:46:01;;;;;;;4.78;2.90;;;21.30;97.20;;;;;;5012729;28;20025;-71
2022/07/31 08:48:32;;;;;;;6.03;2.97;;;21.40;97.30;;;;;;5012802;28;20049;-72
2022/07/31 08:51:00;;;;;;;5.63;2.70;;;21.40;97.30;;;;;;5012983;28;20452;-72
2022/07/31 08:54:07;;;;;;;5.78;2.75;;;21.40;97.40;;;;;;4950287;28;20075;-72
2022/07/31 08:56:35;;;;;;;6.35;3.10;;;21.40;97.40;;;;;;4950110;29;20035;-72
2022/07/31 08:59:02;;;;;;;5.38;2.70;;;21.40;97.50;;;;;;4973322;28;20040;-71
2022/07/31 09:01:28;;;;;;;4.50;2.90;;;21.50;97.60;;;;;;5012715;28;20025;-72
2022/07/31 09:03:57;;;;;;;7.00;3.90;;;21.50;97.70;;;;;;5012624;28;20032;-72
2022/07/31 09:06:23;;;;;;;7.35;3.50;;;21.50;97.50;;;;;;5015997;28;20512;-71
2022/07/31 09:08:49;;;;;;;6.90;3.10;;;21.50;97.50;;;;;;5016164;28;20026;-72
2022/07/31 09:11:15;;;;;;;5.90;2.83;;;21.50;97.70;;;;;;5016313;28;20075;-71
2022/07/31 09:14:08;;;;;;;4.43;2.60;;;21.60;97.70;;;;;;5010682;28;20108;-72
2022/07/31 09:16:48;;;;;;;5.93;2.67;;;21.60;97.70;;;;;;5016179;28;20512;-72
2022/07/31 09:19:17;;;;;;;5.25;2.35;;;21.70;97.70;;;;;;5016171;28;20025;-72
2022/07/31 09:21:45;;;;;;;5.40;3.20;;;21.70;97.70;;;;;;5034064;28;20025;-71
2022/07/31 09:24:23;;;;;;;6.07;2.70;;;21.80;97.70;;;;;;5033827;28;20076;-72
2022/07/31 09:26:51;;;;;;;;;;;21.80;97.40;;;;;;5016416;28;20394;-72
2022/07/31 09:29:17;;;;;;;4.45;2.70;;;21.80;97.50;;;;;;5033481;28;19917;-72
2022/07/31 09:31:43;;;;;;;5.75;2.90;;;21.80;97.70;;;;;;5015993;28;20079;-72
2022/07/31 09:34:40;;;;;;;6.45;2.90;;;21.80;97.60;;;;;;5016130;28;20091;-72
2022/07/31 09:37:16;;;;;;;7.68;2.80;;;21.80;97.30;;;;;;5015870;28;20025;-72
2022/07/31 09:39:57;;;;;;;5.22;2.95;;;21.80;97.40;;;;;;5033570;28;20037;-72
2022/07/31 09:42:44;;;;;;;4.53;2.90;;;21.80;97.40;;;;;;5033937;28;20449;-72
2022/07/31 09:45:23;;;;;;;4.53;2.60;;;21.80;97.30;;;;;;5000627;28;20075;-70
2022/07/31 09:48:11;;;;;;;5.40;2.78;;;21.80;97.30;;;;;;4999379;28;20030;-70
2022/07/31 09:50:38;;;;;;;;;;;21.80;97.40;;;;;;5033745;28;20137;-70
2022/07/31 09:53:05;;;;;;;6.78;3.17;;;21.80;97.30;;;;;;5033323;28;19913;-70
2022/07/31 09:55:32;;;;;;;6.25;3.33;;;21.80;97.30;;;;;;5015486;28;20513;-70
2022/07/31 09:58:00;;;;;;;5.22;2.70;;;21.90;97.30;;;;;;5015179;28;20029;-70
2022/07/31 10:00:36;;;;;;;4.50;2.20;;;21.90;97.40;;;;;;5015162;28;20053;-70
2022/07/31 10:03:03;;;;;;;3.83;2.45;;;21.90;97.30;;;;;;5015296;28;20120;-70
2022/07/31 10:05:30;;;;;;;5.07;2.88;;;21.90;97.30;;;;;;5015150;28;20029;-70
2022/07/31 10:08:00;;;;;;;5.45;2.70;;;22.00;97.30;;;;;;5015069;28;20104;-70
2022/07/31 10:10:48;;;;;;;3.15;2.10;;;22.00;97.00;;;;;;5013480;28;20560;-70
2022/07/31 10:13:55;;;;;;;3.92;2.40;;;22.10;97.00;;;;;;5016623;28;20037;-70
2022/07/31 10:16:26;;;;;;;3.53;1.90;;;22.10;96.80;;;;;;5014163;28;20037;-70
2022/07/31 10:19:18;;;;;;;3.75;2.10;;;22.10;96.80;;;;;;5009297;28;20048;-70
2022/07/31 10:22:13;;;;;;;4.28;2.33;;;22.20;96.90;;;;;;5016863;28;20037;-70
2022/07/31 10:24:46;;;;;;;4.22;2.50;;;22.30;96.90;;;;;;5032632;28;20052;-70
2022/07/31 10:27:18;;;;;;;6.40;2.13;;;22.30;96.70;;;;;;5014754;28;20075;-71
2022/07/31 10:29:48;;;;;;;4.15;2.40;;;22.40;96.60;;;;;;5014599;28;20034;-71
2022/07/31 10:32:15;;;;;;;5.10;2.45;;;22.40;96.60;;;;;;5015153;28;20099;-70
2022/07/31 10:35:06;;;;;;;3.83;2.13;;;22.50;96.50;;;;;;5031945;28;20041;-70
2022/07/31 10:38:17;;;;;;;3.70;2.40;;;22.60;96.40;;;;;;5004386;28;20112;-72
2022/07/31 10:41:02;;;;;;;3.88;2.05;;;22.70;96.20;;;;;;5032489;28;20073;-72
2022/07/31 10:43:40;;;;;;;5.00;2.10;;;22.80;96.20;;;;;;5014645;28;20033;-71
2022/07/31 10:46:34;;;;;;;3.47;1.88;;;22.90;95.90;;;;;;5014428;28;20037;-72
2022/07/31 10:49:17;;;;;;;2.15;1.60;;;22.90;95.90;;;;;;5014324;28;20025;-72
2022/07/31 10:52:00;;;;;;;3.42;2.10;;;23.00;96.40;;;;;;5014375;28;20128;-72
2022/07/31 10:54:56;;;;;;;5.30;2.08;;;23.10;95.80;;;;;;5014752;28;20083;-72
2022/07/31 10:57:35;;;;;;;5.45;3.13;;;23.10;95.60;;;;;;5032150;28;20052;-72
2022/07/31 11:00:28;;;;;;;4.07;2.45;;;23.10;95.40;;;;;;5014090;28;20036;-71
2022/07/31 11:03:18;;;;;;;5.80;2.70;;;23.10;95.40;;;;;;5032380;28;20037;-72
2022/07/31 11:06:07;;;;;;;5.72;2.88;;;23.10;95.30;;;;;;5023500;28;20458;-71
2022/07/31 11:08:53;;;;;;;5.72;2.42;;;23.20;95.20;;;;;;5031950;28;20053;-72
2022/07/31 11:11:39;;;;;;;6.68;3.53;;;23.10;95.30;;;;;;5031633;28;20112;-72
2022/07/31 11:14:34;;;;;;;5.70;2.75;;;23.10;95.30;;;;;;5032233;28;20267;-71
2022/07/31 11:17:32;;;;;;;6.18;2.42;;;23.10;95.30;;;;;;5031687;28;20086;-71
2022/07/31 11:20:30;;;;;;;6.57;3.00;;;23.10;95.20;;;;;;5031560;28;20036;-72
2022/07/31 11:23:02;;;;;;;6.43;2.88;;;23.10;95.40;;;;;;5031663;28;20045;-71
2022/07/31 11:25:30;;;;;;;4.47;2.47;;;23.10;95.70;;;;;;5031415;28;20112;-71
2022/07/31 11:28:35;;;;;;;4.82;2.28;;;23.10;96.00;;;;;;5031104;28;20025;-71
2022/07/31 11:31:06;;;;;;;3.85;2.25;;;23.00;96.20;;;;;;5031483;28;20030;-72
2022/07/31 11:33:40;;;;;;;4.80;2.35;;;23.00;95.90;;;;;;5031539;28;20029;-71
2022/07/31 11:36:13;;;;;;;4.50;2.53;;;23.00;95.80;;;;;;5031314;28;20037;-71
2022/07/31 11:38:44;;;;;;;6.22;2.60;;;23.00;95.70;;;;;;5013655;28;20033;-72
2022/07/31 11:41:11;;;;;;;5.10;2.20;;;22.90;95.50;;;;;;5031369;28;20030;-72
2022/07/31 11:43:41;;;;;;;5.88;2.42;;;23.00;95.70;;;;;;5031335;28;20457;-71
2022/07/31 11:46:07;;;;;;;4.32;2.05;;;23.00;95.80;;;;;;5031126;28;20033;-72
2022/07/31 11:48:37;;;;;;;7.18;2.67;;;23.10;95.70;;;;;;5013407;28;20128;-72
2022/07/31 11:51:04;;;;;;;5.72;2.75;;;23.20;95.20;;;;;;5031429;28;20057;-70
2022/07/31 11:53:38;;;;;;;5.68;2.22;;;23.30;95.20;;;;;;5031304;28;20021;-70
2022/07/31 11:56:04;;;;;;;5.35;2.60;;;23.30;95.20;;;;;;5031022;28;20030;-71
2022/07/31 11:58:30;;;;;;;6.80;2.90;;;23.30;95.00;;;;;;5030985;28;20029;-73
2022/07/31 12:00:59;;;;;;;7.45;4.05;;;23.40;95.10;;;;;;5030799;28;20029;-71
2022/07/31 12:03:36;;;;;;;5.57;3.10;;;23.50;94.70;;;;;;5013493;28;20443;-71
2022/07/31 12:06:04;;;;;;;6.95;2.55;;;23.60;94.50;;;;;;5030983;28;20064;-71
2022/07/31 12:08:30;;;;;;;6.88;2.35;;;23.60;94.60;;;;;;5031038;28;20022;-74
2022/07/31 12:10:58;;;;;;;3.97;2.25;;;23.60;94.70;;;;;;5030899;28;20026;-71
2022/07/31 12:13:25;;;;;;;7.18;4.50;;;23.70;94.60;;;;;;5031514;28;20026;-70
2022/07/31 12:16:05;;;;;;;5.90;3.17;;;23.70;94.50;;;;;;5030899;28;20613;-70
2022/07/31 12:18:51;;;;;;;4.18;2.53;;;23.80;94.30;;;;;;5013069;28;20037;-71
2022/07/31 12:21:19;;;;;;;3.38;2.15;;;23.80;94.30;;;;;;5030893;28;20109;-70
2022/07/31 12:23:49;;;;;;;4.20;2.10;;;23.90;94.30;;;;;;5031272;28;20446;-70
2022/07/31 12:26:27;;;;;;;4.57;2.08;;;23.90;94.40;;;;;;5030615;28;20033;-70
2022/07/31 12:29:08;;;;;;;4.05;2.50;;;23.90;94.60;;;;;;5055358;22;20106;-69
2022/07/31 12:31:46;;;;;;;5.18;2.80;;;23.90;93.80;;;;;;5050685;28;20025;-71
2022/07/31 12:34:42;;;;;;;5.40;2.63;;;23.90;93.60;;;;;;5050722;28;20029;-71
2022/07/31 12:37:16;;;;;;;5.85;3.05;;;23.90;93.60;;;;;;5050652;28;20029;-71
2022/07/31 12:39:51;;;;;;;5.55;2.45;;;23.90;93.70;;;;;;5051542;28;20032;-71
2022/07/31 12:42:33;;;;;;;4.22;2.67;;;23.90;93.90;;;;;;5054711;28;20028;-69
2022/07/31 12:45:02;;;;;;;4.57;2.92;;;23.90;94.00;;;;;;5054593;28;20123;-69
2022/07/31 12:47:33;;;;;;;4.57;2.70;;;23.90;94.10;;;;;;5054684;28;20029;-70
2022/07/31 12:50:00;;;;;;;4.05;2.63;;;23.90;94.10;;;;;;5054480;28;20385;-69
2022/07/31 12:52:28;;;;;;;4.15;2.80;;;24.00;94.20;;;;;;5054561;28;20553;-70
2022/07/31 12:54:54;;;;;;;3.72;2.70;;;24.00;94.10;;;;;;5054474;28;20033;-70
2022/07/31 12:57:20;;;;;;;5.65;2.90;;;24.10;94.10;;;;;;5054530;28;20079;-70
2022/07/31 12:59:46;;;;;;;6.20;3.05;;;24.10;94.10;;;;;;5054488;28;20481;-70
2022/07/31 13:02:12;;;;;;;5.35;2.53;;;24.20;94.10;;;;;;5054368;28;20108;-70
2022/07/31 13:04:38;;;;;;;6.15;3.35;;;24.30;94.10;;;;;;5054423;28;20033;-70
2022/07/31 13:07:04;;;;;;;4.80;3.10;;;24.30;94.00;;;;;;5054409;28;20048;-70
2022/07/31 13:09:30;;;;;;;5.25;3.17;;;24.30;93.90;;;;;;5053843;28;20440;-70
2022/07/31 13:11:56;;;;;;;4.68;2.80;;;24.40;93.70;;;;;;5036542;28;20029;-70
2022/07/31 13:14:22;;;;;;;5.30;2.88;;;24.30;93.50;;;;;;5054142;28;20078;-70